Buxton, Mississippi
Current Conditions -  °F | °C
As of 12:55 PM on Friday 24 Oct 2014 (Local Time) from KUTA Reporting Station
Clear Clear  
Wind Chill: 68°   Ceiling: Unl
Heat Index: 68°   Visibility: 10mi
Dew Point: 46°   Wind: 0mph
Humidity: 46%   Direction: NA
Pressure: 30.14"   Gusts: NA
Location:  34.6036°N, 90.124°W
Report Text: KUTA 241755Z AUTO 00000KT 10SM CLR 20/08 A3014 RMK AO2
Loading
Personal Weather Stations






























Interactive Weather Map
Tropical Storm Tracking
New forecast layout! Learn more

10-Day Weather Forecast

Advertisements
Track Severe Weather on mobile